Ramirez, Texas
Current Conditions -  °F | °C
As of 5:15 AM on Wednesday 26 Nov 2014 (Local Time) from KHBV Reporting Station
Clear Clear  
Wind Chill: 39°   Ceiling: Unl
Heat Index: 43°   Visibility: 10mi
Dew Point: 33°   Wind: 6mph
Humidity: 69%   Direction: 190°S
Pressure: 30.25"   Gusts: NA
Location:  27.5098°N, 98.639°W
Report Text: KHBV 261115Z AUTO 19005KT 10SM CLR 06/01 A3025 RMK AO2 T00610007
Loading
Personal Weather Stations






























Interactive Weather Map New forecast layout! Learn more

10-Day Weather Forecast

Advertisements
Track Severe Weather on mobile